Time;durP1;ratioP1;P1;durP2;ratioP2;P2;SDS_P1;SDS_P2;PMS_P1;PMS_P2;Temp;Humidity;BMP_temperature;BMP_pressure;BME280_temperature;BME280_humidity;BME280_pressure;Samples;Min_cycle;Max_cycle;Signal;HPM_P1;HPM_P2
2022/08/07 00:02:12;;;;;;;3.75;1.73;;;;;;;20.41;44.63;102586.72;5065597;28;20386;-61
2022/08/07 00:05:00;;;;;;;3.05;1.50;;;;;;;20.38;44.63;102579.03;5063450;28;20135;-61
2022/08/07 00:07:30;;;;;;;5.05;1.83;;;;;;;20.38;44.63;102583.63;5065318;28;20059;-61
2022/08/07 00:10:10;;;;;;;3.58;1.52;;;;;;;20.32;44.72;102573.69;5063865;28;20049;-61
2022/08/07 00:12:54;;;;;;;3.35;1.50;;;;;;;20.33;44.99;102581.63;5057743;28;20137;-61
2022/08/07 00:15:28;;;;;;;4.65;2.13;;;;;;;20.30;45.21;102576.66;5057064;28;20049;-60
2022/08/07 00:18:14;;;;;;;4.05;1.50;;;;;;;20.28;45.13;102570.63;5061725;28;20060;-61
2022/08/07 00:20:48;;;;;;;3.08;1.73;;;;;;;20.26;45.14;102570.03;5061678;28;20058;-61
2022/08/07 00:23:16;;;;;;;2.83;1.70;;;;;;;20.25;45.31;102564.81;5065379;28;20422;-61
2022/08/07 00:25:45;;;;;;;3.90;2.20;;;;;;;20.23;45.23;102566.97;5065247;28;20064;-60
2022/08/07 00:28:27;;;;;;;2.35;1.50;;;;;;;20.22;45.26;102566.13;5062843;28;20045;-60
2022/08/07 00:31:01;;;;;;;4.00;1.70;;;;;;;20.18;45.26;102558.69;5064811;28;20313;-61
2022/08/07 00:33:34;;;;;;;2.63;1.92;;;;;;;20.20;45.44;102559.25;5063420;28;20057;-60
2022/08/07 00:36:03;;;;;;;2.60;1.50;;;;;;;20.18;45.36;102553.22;5064586;28;20080;-60
2022/08/07 00:38:31;;;;;;;3.78;1.75;;;;;;;20.17;45.39;102554.28;5063083;28;20479;-61
2022/08/07 00:41:01;;;;;;;3.20;1.73;;;;;;;20.14;45.27;102553.69;5062434;28;20371;-61
2022/08/07 00:43:29;;;;;;;3.33;1.85;;;;;;;20.12;45.49;102549.56;5063514;28;20080;-61
2022/08/07 00:46:17;;;;;;;4.32;2.22;;;;;;;20.10;45.61;102549.81;5063113;28;20055;-61
2022/08/07 00:48:44;;;;;;;5.05;1.90;;;;;;;20.08;45.65;102545.66;5061772;28;20048;-61
2022/08/07 00:51:16;;;;;;;3.40;2.05;;;;;;;20.05;45.87;102552.44;5053887;28;20113;-60
2022/08/07 00:53:44;;;;;;;4.10;1.92;;;;;;;20.05;45.82;102555.16;5060517;28;20059;-61
2022/08/07 00:56:23;;;;;;;4.13;1.77;;;;;;;20.02;45.96;102541.19;5062789;28;20045;-61
2022/08/07 00:59:00;;;;;;;4.28;1.90;;;;;;;20.00;45.92;102538.69;5063890;28;20148;-61
2022/08/07 01:01:29;;;;;;;2.80;1.55;;;;;;;20.00;45.83;102535.13;5051972;28;20046;-61
2022/08/07 01:04:11;;;;;;;5.07;1.90;;;;;;;19.99;45.85;102544.38;5044995;28;20049;-61
2022/08/07 01:06:51;;;;;;;2.35;1.70;;;;;;;19.97;46.02;102531.00;5054709;28;20060;-61
2022/08/07 01:09:20;;;;;;;3.22;1.65;;;;;;;19.95;45.93;102532.31;5063574;28;20049;-61
2022/08/07 01:12:09;;;;;;;3.47;1.40;;;;;;;19.94;45.97;102527.91;5062370;28;20047;-61
2022/08/07 01:14:58;;;;;;;4.05;1.52;;;;;;;19.95;45.75;102535.03;5051904;28;20085;-61
2022/08/07 01:17:31;;;;;;;1.90;1.50;;;;;;;19.94;45.80;102527.91;5056822;28;20056;-61
2022/08/07 01:20:05;;;;;;;3.05;1.50;;;;;;;19.95;45.97;102526.84;5061246;28;20084;-61
2022/08/07 01:22:36;;;;;;;5.53;1.60;;;;;;;19.93;45.75;102527.09;5062727;28;20099;-60
2022/08/07 01:25:14;;;;;;;3.95;2.28;;;;;;;19.91;46.10;102523.78;5059565;28;20049;-61
2022/08/07 01:28:02;;;;;;;4.47;1.73;;;;;;;19.90;45.99;102521.28;5057972;28;20064;-61
2022/08/07 01:30:32;;;;;;;2.65;1.80;;;;;;;19.89;45.94;102520.47;5063174;28;20064;-61
2022/08/07 01:33:00;;;;;;;2.97;1.92;;;;;;;19.88;46.25;102517.97;5056124;28;20049;-61
2022/08/07 01:35:29;;;;;;;3.00;1.85;;;;;;;19.87;46.30;102521.78;5063611;28;20045;-61
2022/08/07 01:38:18;;;;;;;4.65;2.00;;;;;;;19.85;46.14;102510.28;5063352;28;20057;-61
2022/08/07 01:40:59;;;;;;;2.50;1.70;;;;;;;19.84;46.15;102523.09;5062472;28;20055;-61
2022/08/07 01:43:29;;;;;;;3.55;1.70;;;;;;;19.81;46.29;102512.66;5062487;28;20049;-60
2022/08/07 01:46:05;;;;;;;1.85;1.52;;;;;;;19.80;46.25;102506.38;5062776;28;20049;-61
2022/08/07 01:48:36;;;;;;;2.38;1.42;;;;;;;19.80;46.00;102509.09;5061838;28;20091;-62
2022/08/07 01:51:09;;;;;;;3.78;1.63;;;;;;;19.79;46.36;102515.63;5060688;28;20045;-61
2022/08/07 01:54:02;;;;;;;5.50;2.10;;;;;;;19.75;46.29;102508.19;5061170;28;20056;-61
2022/08/07 01:56:51;;;;;;;4.65;1.85;;;;;;;19.74;46.56;102511.97;5062786;28;20049;-61
2022/08/07 01:59:24;;;;;;;3.13;1.88;;;;;;;19.73;46.69;102504.88;5057688;28;20107;-61
2022/08/07 02:02:02;;;;;;;3.72;1.80;;;;;;;19.70;46.64;102505.34;5059461;28;20049;-61
2022/08/07 02:04:41;;;;;;;2.70;1.70;;;;;;;19.69;46.60;102503.69;5063497;28;20051;-61
2022/08/07 02:07:26;;;;;;;5.32;2.63;;;;;;;19.68;46.86;102508.31;5062360;28;20418;-61
2022/08/07 02:10:14;;;;;;;3.30;1.60;;;;;;;19.65;46.84;102506.06;5057562;28;20037;-61
2022/08/07 02:12:45;;;;;;;3.10;1.95;;;;;;;19.64;47.03;102506.31;5062077;28;20072;-61
2022/08/07 02:15:20;;;;;;;5.90;2.00;;;;;;;19.61;46.91;102504.06;5057404;28;20054;-60
2022/08/07 02:17:51;;;;;;;2.92;1.98;;;;;;;19.58;46.88;102499.09;5048724;28;20053;-60
2022/08/07 02:20:22;;;;;;;3.63;2.00;;;;;;;19.58;46.95;102502.66;5054561;28;20108;-60
2022/08/07 02:22:53;;;;;;;3.75;1.88;;;;;;;19.57;47.17;102498.28;5061609;28;20055;-60
2022/08/07 02:25:25;;;;;;;4.05;2.15;;;;;;;19.55;47.12;102494.13;5053151;28;20064;-60
2022/08/07 02:28:15;;;;;;;4.97;1.85;;;;;;;19.54;47.19;102496.03;5057802;28;20052;-60
2022/08/07 02:30:53;;;;;;;4.47;2.10;;;;;;;19.52;47.21;102494.59;5062179;28;20106;-60
2022/08/07 02:33:24;;;;;;;4.88;2.20;;;;;;;19.50;47.37;102490.19;5059539;28;20064;-60
2022/08/07 02:36:15;;;;;;;3.90;2.40;;;;;;;19.50;47.29;102497.53;5065424;28;20108;-61
2022/08/07 02:38:58;;;;;;;3.38;2.33;;;;;;;19.48;47.40;102502.41;5064319;28;20071;-61
2022/08/07 02:41:29;;;;;;;5.85;2.55;;;;;;;19.46;47.41;102496.38;5063165;28;20132;-60
2022/08/07 02:44:04;;;;;;;4.05;2.30;;;;;;;19.45;47.38;102489.25;5064746;28;20041;-60
2022/08/07 02:46:35;;;;;;;3.40;2.28;;;;;;;19.43;47.45;102491.41;5066717;28;20045;-61
2022/08/07 02:49:04;;;;;;;6.88;2.50;;;;;;;19.42;47.58;102487.84;5065244;28;20147;-60
2022/08/07 02:51:34;;;;;;;4.28;2.17;;;;;;;19.40;47.52;102486.44;5064980;28;20106;-61
2022/08/07 02:54:21;;;;;;;3.72;2.20;;;;;;;19.36;47.58;102477.91;5064488;28;20060;-60
2022/08/07 02:56:54;;;;;;;3.60;2.38;;;;;;;19.37;47.77;102489.63;5063218;28;20049;-60
2022/08/07 02:59:25;;;;;;;5.28;2.38;;;;;;;19.35;47.35;102481.69;5064563;28;20057;-61
2022/08/07 03:01:55;;;;;;;4.78;2.25;;;;;;;19.36;47.71;102487.97;5059770;28;20041;-61
2022/08/07 03:04:28;;;;;;;4.57;2.80;;;;;;;19.34;47.85;102485.50;5052777;28;20375;-61
2022/08/07 03:06:58;;;;;;;5.07;2.42;;;;;;;19.33;47.55;102486.56;5061407;28;20144;-61
2022/08/07 03:09:34;;;;;;;7.28;2.60;;;;;;;19.33;47.82;102489.28;5055229;28;20115;-61
2022/08/07 03:12:15;;;;;;;5.38;2.30;;;;;;;19.32;47.51;102486.78;5064646;28;20052;-61
2022/08/07 03:14:57;;;;;;;4.22;2.20;;;;;;;19.29;47.34;102479.94;5053176;28;20052;-61
2022/08/07 03:17:29;;;;;;;6.63;3.22;;;;;;;19.31;47.57;102479.69;5062477;28;20110;-61
2022/08/07 03:20:05;;;;;;;2.92;2.15;;;;;;;19.30;47.60;102478.84;5065367;28;20045;-61
2022/08/07 03:22:34;;;;;;;3.67;2.28;;;;;;;19.30;47.51;102483.47;5063317;28;20049;-61
2022/08/07 03:25:02;;;;;;;3.17;2.35;;;;;;;19.30;47.56;102478.03;5059124;28;20112;-61
2022/08/07 03:27:32;;;;;;;7.25;2.95;;;;;;;19.28;47.44;102481.00;5053789;28;20069;-61
2022/08/07 03:30:22;;;;;;;4.28;2.65;;;;;;;19.28;47.61;102480.16;5051913;28;20521;-61
2022/08/07 03:32:53;;;;;;;5.25;2.42;;;;;;;19.26;47.54;102477.69;5052999;28;20510;-61
2022/08/07 03:35:27;;;;;;;5.90;2.40;;;;;;;19.25;47.59;102481.47;5063922;28;20140;-61
2022/08/07 03:38:11;;;;;;;3.92;2.60;;;;;;;19.24;47.60;102479.81;5059172;28;20053;-61
2022/08/07 03:40:40;;;;;;;4.05;2.42;;;;;;;19.23;47.70;102477.34;5063792;28;20049;-61
2022/08/07 03:43:14;;;;;;;4.07;2.40;;;;;;;19.21;47.54;102476.75;5062557;28;20052;-61
2022/08/07 03:45:43;;;;;;;4.43;2.67;;;;;;;19.21;47.85;102479.47;5056279;28;20064;-60
2022/08/07 03:48:15;;;;;;;4.32;2.88;;;;;;;19.20;47.74;102473.19;5055124;28;20064;-61
2022/08/07 03:50:45;;;;;;;3.35;2.47;;;;;;;19.17;47.76;102477.22;5057649;28;20046;-61
2022/08/07 03:53:24;;;;;;;7.00;3.10;;;;;;;19.17;47.88;102481.84;5050970;28;20050;-61
2022/08/07 03:56:16;;;;;;;5.63;3.15;;;;;;;19.15;47.89;102478.53;5059566;28;20112;-60
2022/08/07 03:59:01;;;;;;;6.68;2.88;;;;;;;19.10;47.98;102479.25;5063103;28;20068;-60
2022/08/07 04:01:41;;;;;;;5.07;3.00;;;;;;;19.10;47.96;102481.16;5058558;28;20049;-61
2022/08/07 04:04:12;;;;;;;5.55;2.78;;;;;;;19.08;47.86;102495.00;5059863;28;20121;-61
2022/08/07 04:06:44;;;;;;;5.95;2.88;;;;;;;19.08;48.24;102486.00;5064199;28;20147;-61
2022/08/07 04:09:17;;;;;;;6.05;3.08;;;;;;;19.06;48.21;102490.91;5061007;28;20071;-61
2022/08/07 04:11:51;;;;;;;3.60;2.70;;;;;;;19.03;48.41;102492.19;5054875;28;20059;-61
2022/08/07 04:14:41;;;;;;;4.28;2.97;;;;;;;19.02;48.38;102492.44;5052482;28;20128;-61
2022/08/07 04:17:15;;;;;;;6.43;2.80;;;;;;;18.99;48.32;102493.75;5065018;28;20052;-61
2022/08/07 04:19:48;;;;;;;7.05;3.75;;;;;;;19.00;48.25;102500.03;5064332;28;20037;-61
2022/08/07 04:22:23;;;;;;;4.85;2.78;;;;;;;18.98;48.35;102493.97;5056722;28;20072;-62
2022/08/07 04:24:57;;;;;;;5.40;3.30;;;;;;;18.97;48.54;102497.78;5057210;28;20079;-61
2022/08/07 04:27:25;;;;;;;6.07;3.42;;;;;;;18.94;48.44;102500.97;5064958;28;20045;-61
2022/08/07 04:29:55;;;;;;;6.53;2.95;;;;;;;18.94;48.66;102506.41;4709587;28;10000618;-63
2022/08/07 04:32:30;;;;;;;4.30;2.67;;;;;;;18.90;48.76;102497.06;5059071;28;20091;-63
2022/08/07 04:35:02;;;;;;;4.32;3.00;;;;;;;18.88;48.76;102502.75;5059893;28;20365;-63
2022/08/07 04:37:33;;;;;;;3.75;2.72;;;;;;;18.87;48.62;102498.38;5054249;28;20057;-63
2022/08/07 04:40:23;;;;;;;3.45;2.65;;;;;;;18.85;48.86;102501.34;5057786;28;20054;-62
2022/08/07 04:42:57;;;;;;;;;;;;;;;18.84;48.83;102502.41;5058312;28;20203;-62
2022/08/07 04:45:38;;;;;;;3.92;2.75;;;;;;;18.82;48.86;102507.25;5063437;28;19931;-62
2022/08/07 04:48:34;;;;;;;5.43;3.20;;;;;;;18.79;48.94;102509.63;5053265;28;20059;-63
2022/08/07 04:51:08;;;;;;;6.63;3.20;;;;;;;18.77;49.25;102515.31;5058649;28;20052;-63
2022/08/07 04:53:44;;;;;;;4.68;2.88;;;;;;;18.75;49.12;102509.25;5053126;28;20041;-63
2022/08/07 04:56:42;;;;;;;5.13;3.15;;;;;;;18.74;49.17;102512.22;5061159;28;20413;-63
2022/08/07 04:59:34;;;;;;;9.38;3.50;;;;;;;18.73;49.34;102507.84;5062579;28;20049;-61
2022/08/07 05:02:28;;;;;;;4.60;2.78;;;;;;;18.71;49.28;102513.53;5060311;28;20048;-62
2022/08/07 05:05:02;;;;;;;5.63;3.38;;;;;;;18.71;49.16;102513.53;5057171;28;20049;-62
2022/08/07 05:07:58;;;;;;;6.07;3.30;;;;;;;18.70;49.38;102516.47;5060017;28;20116;-62
2022/08/07 05:10:33;;;;;;;6.60;2.73;;;;;;;18.70;49.33;102509.13;5060133;28;20049;-62
2022/08/07 05:13:07;;;;;;;5.07;3.00;;;;;;;18.68;49.24;102514.00;5059051;28;20310;-62
2022/08/07 05:15:57;;;;;;;5.63;3.70;;;;;;;18.68;49.40;102515.88;5054670;28;20063;-62
2022/08/07 05:18:29;;;;;;;6.18;3.20;;;;;;;18.67;49.22;102517.78;5058706;28;20163;-63
2022/08/07 05:21:00;;;;;;;6.93;3.40;;;;;;;18.68;49.12;102524.06;5058305;28;20100;-63
2022/08/07 05:23:34;;;;;;;5.18;3.13;;;;;;;18.66;49.35;102521.56;5050891;28;20062;-63
2022/08/07 05:26:05;;;;;;;14.07;3.33;;;;;;;18.66;49.24;102518.00;5059817;28;20094;-61
2022/08/07 05:28:46;;;;;;;5.28;2.83;;;;;;;18.61;49.40;102518.72;5059490;28;20069;-63
2022/08/07 05:31:18;;;;;;;5.78;3.33;;;;;;;18.66;49.00;102518.84;5058069;28;20453;-63
2022/08/07 05:33:49;;;;;;;6.70;2.67;;;;;;;18.66;48.86;102531.63;5054783;28;20049;-62
2022/08/07 05:36:33;;;;;;;4.88;3.08;;;;;;;18.66;49.18;102528.91;5058975;28;20203;-62
2022/08/07 05:39:03;;;;;;;5.30;3.20;;;;;;;18.66;49.41;102529.75;5058803;28;20117;-64
2022/08/07 05:41:51;;;;;;;4.55;3.30;;;;;;;18.67;48.93;102536.00;5058788;28;20048;-62
2022/08/07 05:44:33;;;;;;;5.47;3.38;;;;;;;18.67;49.05;102531.41;5053750;28;20136;-62
2022/08/07 05:47:01;;;;;;;5.97;2.90;;;;;;;18.69;48.93;102533.88;5059090;28;20053;-62
2022/08/07 05:49:51;;;;;;;7.15;3.70;;;;;;;18.69;48.95;102537.44;5058772;28;20090;-62
2022/08/07 05:52:21;;;;;;;7.65;2.95;;;;;;;18.68;48.88;102535.78;5058061;28;20114;-62
2022/08/07 05:54:59;;;;;;;3.88;2.95;;;;;;;18.68;48.97;102535.78;5055853;28;20119;-62
2022/08/07 05:57:39;;;;;;;12.93;3.58;;;;;;;18.69;48.72;102536.59;5049791;28;20119;-64
2022/08/07 06:00:11;;;;;;;13.75;3.67;;;;;;;18.69;48.78;102545.59;5072567;28;20056;-62
2022/08/07 06:02:47;;;;;;;8.18;2.85;;;;;;;18.69;48.79;102551.06;5059675;28;20041;-62
2022/08/07 06:05:19;;;;;;;9.30;3.20;;;;;;;18.69;48.95;102542.06;5056688;28;20083;-62
2022/08/07 06:07:55;;;;;;;7.55;3.20;;;;;;;18.69;48.81;102548.34;5061998;28;20059;-63
2022/08/07 06:10:44;;;;;;;6.07;3.55;;;;;;;18.67;48.87;102547.75;5055003;28;20053;-62
2022/08/07 06:13:12;;;;;;;6.60;3.22;;;;;;;18.69;48.90;102552.94;5062239;28;20083;-63
2022/08/07 06:15:44;;;;;;;8.27;4.00;;;;;;;18.70;48.84;102557.34;5063533;28;20132;-63
2022/08/07 06:18:17;;;;;;;9.52;3.42;;;;;;;18.70;48.91;102549.16;5061936;28;20041;-62
2022/08/07 06:20:47;;;;;;;7.65;3.67;;;;;;;18.70;49.02;102555.44;5062998;28;20550;-61
2022/08/07 06:23:35;;;;;;;7.82;3.55;;;;;;;18.70;48.95;102549.16;5062752;28;20139;-60
2022/08/07 06:26:22;;;;;;;5.15;3.35;;;;;;;18.71;48.91;102546.22;5062720;28;20048;-61
2022/08/07 06:28:56;;;;;;;5.97;3.35;;;;;;;18.69;48.79;102539.34;5058413;28;20049;-59
2022/08/07 06:31:26;;;;;;;6.38;3.33;;;;;;;18.67;48.80;102545.00;5051663;28;20053;-59
2022/08/07 06:34:13;;;;;;;5.55;3.40;;;;;;;18.67;48.96;102541.47;5061819;28;20053;-61
2022/08/07 06:36:42;;;;;;;5.45;3.72;;;;;;;18.65;48.94;102533.53;5068998;28;20568;-61
2022/08/07 06:39:10;;;;;;;5.97;3.60;;;;;;;18.66;48.87;102551.53;5065347;28;20072;-61
2022/08/07 06:42:04;;;;;;;6.60;3.40;;;;;;;18.66;48.89;102537.91;5065730;28;20045;-61
2022/08/07 06:44:34;;;;;;;6.43;3.40;;;;;;;18.67;48.86;102536.00;5064087;28;20068;-62
2022/08/07 06:47:06;;;;;;;4.97;3.58;;;;;;;18.66;48.80;102534.34;5057033;28;20049;-61
2022/08/07 06:49:40;;;;;;;5.00;3.65;;;;;;;18.66;48.88;102537.91;5055593;28;20068;-61
2022/08/07 06:52:22;;;;;;;5.00;3.22;;;;;;;18.67;48.71;102539.56;5066441;28;20053;-61
2022/08/07 06:55:04;;;;;;;6.28;3.22;;;;;;;18.66;48.83;102528.91;5066074;28;20081;-62
2022/08/07 06:57:55;;;;;;;5.07;3.30;;;;;;;18.66;48.86;102527.00;5055323;28;20516;-62
2022/08/07 07:00:27;;;;;;;4.15;3.05;;;;;;;18.66;48.76;102518.84;4711879;28;9999759;-64
2022/08/07 07:02:56;;;;;;;6.85;4.20;;;;;;;18.66;48.85;102520.75;5062223;28;20083;-62
2022/08/07 07:05:28;;;;;;;5.32;3.65;;;;;;;18.67;48.97;102528.66;5052279;28;20045;-63
2022/08/07 07:08:17;;;;;;;6.93;2.92;;;;;;;18.67;48.70;102522.41;5052330;28;20063;-63
2022/08/07 07:10:54;;;;;;;6.15;4.05;;;;;;;18.67;48.70;102527.84;5055735;28;20087;-63
2022/08/07 07:13:30;;;;;;;4.70;3.58;;;;;;;18.68;48.84;102532.22;5063954;28;20052;-64
2022/08/07 07:16:21;;;;;;;6.40;3.97;;;;;;;18.69;48.83;102526.53;5049558;28;20053;-63
2022/08/07 07:18:57;;;;;;;4.40;3.33;;;;;;;18.69;48.55;102525.72;5060483;28;20059;-62
2022/08/07 07:21:29;;;;;;;4.97;3.58;;;;;;;18.70;48.84;102521.94;5055700;28;20045;-62
2022/08/07 07:24:18;;;;;;;5.25;3.78;;;;;;;18.71;48.97;102524.41;5062005;28;20049;-62
2022/08/07 07:26:47;;;;;;;9.10;3.75;;;;;;;18.73;48.89;102526.91;5064985;28;20044;-62
2022/08/07 07:29:23;;;;;;;5.05;3.45;;;;;;;18.74;48.93;102529.38;5064064;28;20068;-62
2022/08/07 07:32:13;;;;;;;6.53;3.42;;;;;;;18.76;48.88;102538.16;5064696;28;20067;-62
2022/08/07 07:34:46;;;;;;;6.80;4.10;;;;;;;18.68;48.91;102522.16;5065212;28;20045;-62
2022/08/07 07:37:16;;;;;;;4.10;3.15;;;;;;;18.79;48.84;102534.13;5049583;28;20132;-62
2022/08/07 07:40:12;;;;;;;4.13;2.95;;;;;;;18.81;48.79;102529.28;5054688;28;20049;-62
2022/08/07 07:42:43;;;;;;;4.75;3.40;;;;;;;18.82;48.59;102530.94;5066137;28;20112;-62
2022/08/07 07:45:20;;;;;;;4.20;3.15;;;;;;;18.79;48.84;102515.06;5063626;28;20052;-62
2022/08/07 07:48:10;;;;;;;4.50;3.58;;;;;;;18.83;48.76;102525.25;5064654;28;20053;-62
2022/08/07 07:50:54;;;;;;;5.13;3.28;;;;;;;18.84;48.91;102526.09;5061832;28;20049;-62
2022/08/07 07:53:23;;;;;;;6.35;3.33;;;;;;;18.83;48.81;102517.09;5064838;28;20107;-62
2022/08/07 07:55:58;;;;;;;6.45;3.70;;;;;;;18.85;48.95;102514.94;5065634;28;20112;-62
2022/08/07 07:58:31;;;;;;;4.25;2.97;;;;;;;18.87;48.81;102516.59;5059764;28;20052;-62
2022/08/07 08:01:08;;;;;;;4.55;3.38;;;;;;;18.87;48.99;102506.53;5059449;28;20067;-63
2022/08/07 08:03:59;;;;;;;3.45;2.78;;;;;;;18.88;48.83;102505.47;5060051;28;20049;-63
2022/08/07 08:06:40;;;;;;;5.28;3.30;;;;;;;18.89;48.88;102507.13;5065331;28;20114;-63
2022/08/07 08:09:21;;;;;;;4.32;2.83;;;;;;;18.90;48.73;102499.78;5063850;28;20045;-63
2022/08/07 08:11:51;;;;;;;7.20;3.40;;;;;;;18.92;48.75;102503.09;5065052;28;20045;-63
2022/08/07 08:14:31;;;;;;;6.18;3.63;;;;;;;18.92;48.61;102505.84;5064550;28;20048;-63
2022/08/07 08:17:05;;;;;;;5.07;3.00;;;;;;;18.94;48.67;102503.69;5064150;28;20075;-63
2022/08/07 08:19:56;;;;;;;5.70;2.85;;;;;;;18.95;48.73;102505.34;5063052;28;20067;-63
2022/08/07 08:28:27;;;;;;;3.22;2.50;;;;;;;19.00;48.58;102513.66;5042048;28;20104;-63
2022/08/07 08:31:08;;;;;;;5.53;3.10;;;;;;;19.01;48.55;102509.84;5064248;28;20048;-63
2022/08/07 08:33:45;;;;;;;4.25;2.65;;;;;;;19.01;48.42;102505.25;5055689;28;20067;-63
2022/08/07 08:36:19;;;;;;;5.13;2.70;;;;;;;19.03;48.47;102502.28;5052326;28;20045;-63
2022/08/07 08:38:59;;;;;;;4.88;2.55;;;;;;;19.05;48.37;102505.59;5056085;28;20407;-63
2022/08/07 08:41:41;;;;;;;4.07;2.90;;;;;;;19.07;48.52;102512.44;5049636;28;20084;-63
2022/08/07 08:44:33;;;;;;;4.33;2.87;;;;;;;19.07;48.69;102506.16;5062159;28;20390;-63
2022/08/07 08:47:21;;;;;;;5.78;2.90;;;;;;;19.07;48.47;102506.97;5052169;28;20243;-62
2022/08/07 08:50:01;;;;;;;4.78;2.50;;;;;;;19.00;48.54;102489.94;5062003;28;20413;-63
2022/08/07 08:52:36;;;;;;;4.45;2.75;;;;;;;19.10;48.46;102509.22;5062959;28;20049;-62
2022/08/07 08:55:26;;;;;;;5.47;2.88;;;;;;;19.10;48.38;102505.66;4706349;28;10000108;-62
2022/08/07 08:58:27;;;;;;;6.28;2.38;;;;;;;19.13;48.43;102507.91;5051450;28;20056;-62
2022/08/07 09:01:01;;;;;;;5.18;2.42;;;;;;;19.14;48.31;102504.97;5059652;28;20053;-62
2022/08/07 09:03:52;;;;;;;3.28;2.35;;;;;;;19.15;48.45;102495.72;5062742;28;20525;-62
2022/08/07 09:06:37;;;;;;;3.47;2.10;;;;;;;19.20;48.65;102497.72;5061063;28;20055;-61
2022/08/07 09:09:19;;;;;;;6.32;2.70;;;;;;;19.20;48.57;102492.28;5060392;28;20053;-61
2022/08/07 09:12:10;;;;;;;4.07;2.53;;;;;;;19.26;48.71;102494.03;5062536;28;20152;-61
2022/08/07 09:15:10;;;;;;;4.32;2.35;;;;;;;19.29;48.64;102503.63;5062874;28;20059;-61
2022/08/07 09:18:14;;;;;;;3.92;2.53;;;;;;;19.29;48.57;102501.75;5060762;28;20055;-63
2022/08/07 09:20:59;;;;;;;3.70;2.38;;;;;;;19.27;48.44;102497.59;5062460;28;20052;-63
2022/08/07 09:23:41;;;;;;;3.03;2.20;;;;;;;19.34;48.41;102499.13;5063841;28;20049;-63
2022/08/07 09:26:39;;;;;;;3.70;2.20;;;;;;;19.30;48.64;102483.47;5060313;28;20072;-63
2022/08/07 09:29:23;;;;;;;4.50;2.35;;;;;;;19.40;48.55;102497.34;5063425;28;20057;-64
2022/08/07 09:32:23;;;;;;;8.10;2.88;;;;;;;19.46;48.75;102494.47;5064435;28;20053;-64
2022/08/07 09:35:07;;;;;;;9.60;2.80;;;;;;;19.53;49.22;102488.91;5061948;28;20052;-64
2022/08/07 09:38:07;;;;;;;6.85;2.55;;;;;;;19.49;49.49;102465.88;5058527;28;20112;-64
2022/08/07 09:40:50;;;;;;;11.00;2.97;;;;;;;19.65;49.26;102486.97;5061085;28;20057;-64
2022/08/07 09:43:28;;;;;;;5.93;2.20;;;;;;;19.70;49.27;102486.25;5065722;28;20061;-64
2022/08/07 09:46:35;;;;;;;5.97;2.58;;;;;;;19.71;49.26;102480.56;5060238;28;20041;-63
2022/08/07 09:49:41;;;;;;;5.22;2.40;;;;;;;19.75;48.87;102478.16;5064384;28;20108;-63
2022/08/07 09:52:37;;;;;;;4.68;2.38;;;;;;;19.75;48.86;102472.72;5065862;28;20049;-63
2022/08/07 09:55:10;;;;;;;6.32;2.10;;;;;;;19.78;48.66;102478.50;5067945;28;20045;-63
2022/08/07 09:58:29;;;;;;;4.38;2.20;;;;;;;19.80;48.89;102467.34;5065890;28;20048;-63
2022/08/07 10:01:12;;;;;;;3.28;2.20;;;;;;;19.84;48.84;102460.34;5066794;28;20064;-63
2022/08/07 10:04:19;;;;;;;3.45;1.85;;;;;;;19.89;49.02;102452.25;5066197;28;20152;-63
2022/08/07 10:07:17;;;;;;;4.00;2.15;;;;;;;19.94;49.12;102449.59;5066665;28;20048;-63
2022/08/07 10:10:05;;;;;;;4.07;2.33;;;;;;;20.01;48.98;102450.28;5060095;28;20044;-64
2022/08/07 10:13:20;;;;;;;6.60;2.10;;;;;;;20.05;48.90;102453.34;5053654;28;20057;-64
2022/08/07 10:16:21;;;;;;;4.70;2.90;;;;;;;20.09;48.70;102446.31;5061351;28;20041;-64
2022/08/07 10:19:29;;;;;;;4.15;2.15;;;;;;;20.12;48.65;102451.28;5066638;28;20115;-65
2022/08/07 10:22:22;;;;;;;3.50;2.17;;;;;;;20.13;48.70;102440.13;5065268;28;20049;-62
2022/08/07 10:25:13;;;;;;;5.07;2.10;;;;;;;20.28;48.83;102445.00;5065523;28;20136;-64
2022/08/07 10:27:54;;;;;;;;;;;;;;;20.30;48.89;102439.31;5065913;28;20048;-64
2022/08/07 10:30:33;;;;;;;3.10;2.42;;;;;;;20.33;48.67;102438.81;5053847;28;19948;-64
2022/08/07 10:33:30;;;;;;;2.83;1.95;;;;;;;20.36;48.53;102436.41;5062422;28;20068;-65
2022/08/07 10:36:34;;;;;;;5.32;1.80;;;;;;;20.39;48.21;102433.22;5060743;28;20045;-64
2022/08/07 10:39:16;;;;;;;2.42;1.90;;;;;;;20.42;48.52;102424.53;5047655;28;20049;-64
2022/08/07 10:41:54;;;;;;;4.50;1.90;;;;;;;20.51;48.75;102411.28;5054051;28;20045;-64
2022/08/07 10:44:52;;;;;;;3.17;1.85;;;;;;;20.63;49.08;102416.63;5065429;28;20060;-64
2022/08/07 10:47:30;;;;;;;2.85;1.85;;;;;;;20.69;48.73;102421.91;5066745;28;20048;-64
2022/08/07 10:50:23;;;;;;;3.00;2.15;;;;;;;20.72;48.18;102417.84;5064748;28;20113;-62
2022/08/07 10:53:03;;;;;;;3.70;1.65;;;;;;;20.77;47.87;102428.88;5054637;28;20041;-64
2022/08/07 10:55:43;;;;;;;3.50;1.98;;;;;;;20.82;47.70;102425.34;5062162;28;20060;-64
2022/08/07 10:58:26;;;;;;;4.15;1.80;;;;;;;20.85;47.46;102416.63;5047020;28;20072;-64
2022/08/07 11:01:19;;;;;;;3.03;2.10;;;;;;;20.86;47.00;102416.38;5059724;28;20071;-64
2022/08/07 11:03:58;;;;;;;2.70;1.80;;;;;;;20.92;47.17;102409.09;5064461;28;20399;-65
2022/08/07 11:06:55;;;;;;;3.70;1.43;;;;;;;21.00;47.08;102403.19;4711320;28;10000469;-65
2022/08/07 11:09:28;;;;;;;3.63;1.70;;;;;;;21.07;47.20;102403.81;5058304;28;20052;-64
2022/08/07 11:12:18;;;;;;;2.25;1.75;;;;;;;21.15;46.96;102397.06;5055994;28;20057;-64
2022/08/07 11:15:08;;;;;;;5.28;2.53;;;;;;;21.20;46.73;102386.19;5054619;28;20048;-64
2022/08/07 11:17:47;;;;;;;3.05;1.80;;;;;;;21.21;46.18;102390.59;5065991;28;20048;-64
2022/08/07 11:20:19;;;;;;;2.47;1.83;;;;;;;21.27;46.01;102389.59;5061276;28;20672;-64
2022/08/07 11:23:01;;;;;;;2.95;2.00;;;;;;;21.29;45.93;102387.44;5060699;28;20068;-64
2022/08/07 11:25:35;;;;;;;3.63;1.80;;;;;;;21.33;46.41;102378.47;5056514;28;20069;-63
2022/08/07 11:28:14;;;;;;;3.20;1.92;;;;;;;21.43;46.53;102372.28;5056185;28;20088;-63
2022/08/07 11:30:53;;;;;;;3.22;2.10;;;;;;;21.53;46.25;102375.13;5062375;28;20509;-64
2022/08/07 11:33:28;;;;;;;3.65;1.88;;;;;;;21.51;46.20;102349.94;5052639;28;20049;-64
2022/08/07 11:36:37;;;;;;;2.25;1.33;;;;;;;21.64;45.83;102367.84;5059821;28;20049;-64
2022/08/07 11:39:15;;;;;;;5.65;1.75;;;;;;;21.67;45.76;102370.88;5068810;28;20163;-64
2022/08/07 11:41:54;;;;;;;2.58;1.67;;;;;;;21.71;45.55;102365.72;5066271;28;20053;-64
2022/08/07 11:44:39;;;;;;;2.65;1.52;;;;;;;21.81;46.07;102368.53;5064103;28;20045;-64
2022/08/07 11:47:39;;;;;;;2.47;1.63;;;;;;;21.90;45.68;102364.25;5060687;28;20049;-62
2022/08/07 11:50:41;;;;;;;2.35;1.70;;;;;;;21.94;45.05;102365.38;5053292;28;20049;-64
2022/08/07 11:53:36;;;;;;;2.45;1.60;;;;;;;21.96;45.09;102359.63;5061668;28;20052;-66
2022/08/07 11:56:28;;;;;;;2.38;1.60;;;;;;;22.00;44.91;102361.59;5054853;28;20045;-62
2022/08/07 11:59:06;;;;;;;4.22;2.00;;;;;;;22.02;45.23;102353.97;5052208;28;20084;-62
2022/08/07 12:02:03;;;;;;;3.33;1.77;;;;;;;22.02;44.31;102351.25;5065911;28;20051;-64
2022/08/07 12:05:01;;;;;;;4.68;2.40;;;;;;;22.01;42.80;102359.69;5055501;28;20057;-64
2022/08/07 12:07:41;;;;;;;2.38;1.60;;;;;;;22.02;43.40;102351.25;5063127;28;20059;-64
2022/08/07 12:10:17;;;;;;;3.17;2.08;;;;;;;22.06;43.48;102348.81;5065829;28;20044;-67
2022/08/07 12:12:51;;;;;;;2.47;1.80;;;;;;;22.07;43.98;102347.72;5059964;28;20049;-63
2022/08/07 12:15:24;;;;;;;2.45;1.80;;;;;;;22.19;44.28;102355.75;5061779;28;20059;-64
2022/08/07 12:18:15;;;;;;;3.83;1.67;;;;;;;22.24;44.80;102353.88;5059027;28;20061;-61
2022/08/07 12:21:07;;;;;;;3.33;1.83;;;;;;;22.27;44.60;102341.56;5064575;28;20316;-62
2022/08/07 12:23:46;;;;;;;4.30;2.20;;;;;;;22.29;44.52;102345.69;5062020;28;20095;-62
2022/08/07 12:26:40;;;;;;;3.90;1.80;;;;;;;22.34;43.86;102350.38;5064199;28;20055;-64
2022/08/07 12:29:19;;;;;;;4.10;2.33;;;;;;;22.38;44.19;102333.13;5064085;28;20045;-62
2022/08/07 12:32:14;;;;;;;3.40;1.98;;;;;;;22.43;43.06;102331.53;5063898;28;20045;-63